sensor_id;sensor_type;location;lat;lon;timestamp;pressure;altitude;pressure_sealevel;temperature;humidity
33161;BME280;19522;45.656;11.302;2023-02-15T00:00:11;99784.03;;;4.10;76.54
33161;BME280;19522;45.656;11.302;2023-02-15T00:02:38;99785.81;;;3.98;77.19
33161;BME280;19522;45.656;11.302;2023-02-15T00:05:03;99762.31;;;4.00;76.75
33161;BME280;19522;45.656;11.302;2023-02-15T00:07:29;99775.53;;;4.28;75.73
33161;BME280;19522;45.656;11.302;2023-02-15T00:09:54;99772.97;;;4.26;75.83
33161;BME280;19522;45.656;11.302;2023-02-15T00:12:20;99769.75;;;4.21;75.63
33161;BME280;19522;45.656;11.302;2023-02-15T00:14:45;99765.34;;;4.20;75.50
33161;BME280;19522;45.656;11.302;2023-02-15T00:17:11;99765.53;;;4.05;76.23
33161;BME280;19522;45.656;11.302;2023-02-15T00:19:36;99765.00;;;4.00;76.56
33161;BME280;19522;45.656;11.302;2023-02-15T00:22:02;99766.91;;;3.87;77.06
33161;BME280;19522;45.656;11.302;2023-02-15T00:24:28;99763.47;;;3.85;76.72
33161;BME280;19522;45.656;11.302;2023-02-15T00:26:53;99770.22;;;3.90;76.32
33161;BME280;19522;45.656;11.302;2023-02-15T00:29:19;99751.56;;;4.00;75.40
33161;BME280;19522;45.656;11.302;2023-02-15T00:31:45;99732.25;;;3.95;75.20
33161;BME280;19522;45.656;11.302;2023-02-15T00:34:22;99755.41;;;4.09;75.25
33161;BME280;19522;45.656;11.302;2023-02-15T00:36:48;99749.91;;;4.11;74.71
33161;BME280;19522;45.656;11.302;2023-02-15T00:39:15;99748.94;;;4.12;74.79
33161;BME280;19522;45.656;11.302;2023-02-15T00:41:41;99742.88;;;4.21;74.37
33161;BME280;19522;45.656;11.302;2023-02-15T00:44:07;99729.56;;;4.19;74.20
33161;BME280;19522;45.656;11.302;2023-02-15T00:46:33;99737.63;;;4.19;74.01
33161;BME280;19522;45.656;11.302;2023-02-15T00:48:59;99725.97;;;4.08;74.40
33161;BME280;19522;45.656;11.302;2023-02-15T00:51:24;99736.59;;;4.09;74.14
33161;BME280;19522;45.656;11.302;2023-02-15T00:53:50;99746.16;;;4.13;73.75
33161;BME280;19522;45.656;11.302;2023-02-15T00:56:15;99734.53;;;4.13;73.51
33161;BME280;19522;45.656;11.302;2023-02-15T00:58:41;99720.75;;;4.17;72.76
33161;BME280;19522;45.656;11.302;2023-02-15T01:01:10;99735.69;;;4.33;71.92
33161;BME280;19522;45.656;11.302;2023-02-15T01:03:37;99729.06;;;4.26;72.30
33161;BME280;19522;45.656;11.302;2023-02-15T01:06:03;99658.78;;;3.59;72.58
33161;BME280;19522;45.656;11.302;2023-02-15T01:08:29;99729.91;;;4.15;72.62
33161;BME280;19522;45.656;11.302;2023-02-15T01:10:54;99718.19;;;4.16;72.43
33161;BME280;19522;45.656;11.302;2023-02-15T01:13:20;99727.44;;;4.12;72.86
33161;BME280;19522;45.656;11.302;2023-02-15T01:15:52;99726.06;;;4.06;72.72
33161;BME280;19522;45.656;11.302;2023-02-15T01:18:18;99728.75;;;4.06;72.96
33161;BME280;19522;45.656;11.302;2023-02-15T01:20:43;99718.31;;;4.26;72.05
33161;BME280;19522;45.656;11.302;2023-02-15T01:23:09;99720.91;;;4.27;71.49
33161;BME280;19522;45.656;11.302;2023-02-15T01:25:35;99706.91;;;4.11;71.35
33161;BME280;19522;45.656;11.302;2023-02-15T01:28:01;99662.88;;;3.76;71.92
33161;BME280;19522;45.656;11.302;2023-02-15T01:30:27;99714.91;;;3.99;72.72
33161;BME280;19522;45.656;11.302;2023-02-15T01:32:53;99714.75;;;4.14;72.12
33161;BME280;19522;45.656;11.302;2023-02-15T01:35:18;99698.13;;;4.09;71.74
33161;BME280;19522;45.656;11.302;2023-02-15T01:37:44;99707.09;;;3.96;72.39
33161;BME280;19522;45.656;11.302;2023-02-15T01:40:15;99698.22;;;4.07;71.92
33161;BME280;19522;45.656;11.302;2023-02-15T01:42:41;99704.22;;;4.11;71.44
33161;BME280;19522;45.656;11.302;2023-02-15T01:45:17;99699.81;;;4.10;71.38
33161;BME280;19522;45.656;11.302;2023-02-15T01:47:49;99709.19;;;4.04;71.36
33161;BME280;19522;45.656;11.302;2023-02-15T01:50:33;99707.03;;;3.85;72.04
33161;BME280;19522;45.656;11.302;2023-02-15T01:56:05;99694.69;;;3.82;71.87
33161;BME280;19522;45.656;11.302;2023-02-15T01:58:33;99692.28;;;3.90;71.13
33161;BME280;19522;45.656;11.302;2023-02-15T02:01:00;99684.16;;;3.79;71.51
33161;BME280;19522;45.656;11.302;2023-02-15T02:06:15;99669.06;;;3.65;71.87
33161;BME280;19522;45.656;11.302;2023-02-15T02:08:41;99688.84;;;3.64;72.12
33161;BME280;19522;45.656;11.302;2023-02-15T02:11:14;99674.63;;;3.51;72.11
33161;BME280;19522;45.656;11.302;2023-02-15T02:13:42;99678.97;;;3.89;71.56
33161;BME280;19522;45.656;11.302;2023-02-15T02:27:43;99679.94;;;3.64;71.32
33161;BME280;19522;45.656;11.302;2023-02-15T02:41:16;99661.81;;;3.54;71.65
33161;BME280;19522;45.656;11.302;2023-02-15T02:44:05;99660.38;;;3.62;71.25
33161;BME280;19522;45.656;11.302;2023-02-15T02:46:33;99661.84;;;3.66;71.23
33161;BME280;19522;45.656;11.302;2023-02-15T02:49:01;99658.31;;;3.65;71.03
33161;BME280;19522;45.656;11.302;2023-02-15T02:51:27;99649.22;;;3.55;70.97
33161;BME280;19522;45.656;11.302;2023-02-15T02:53:55;99656.47;;;3.66;70.81
33161;BME280;19522;45.656;11.302;2023-02-15T02:56:43;99661.13;;;3.64;71.01
33161;BME280;19522;45.656;11.302;2023-02-15T02:59:19;99658.16;;;3.55;71.39
33161;BME280;19522;45.656;11.302;2023-02-15T03:02:05;99647.44;;;3.42;71.63
33161;BME280;19522;45.656;11.302;2023-02-15T03:04:39;99654.47;;;3.56;71.50
33161;BME280;19522;45.656;11.302;2023-02-15T03:07:10;99659.22;;;3.53;71.67
33161;BME280;19522;45.656;11.302;2023-02-15T03:09:39;99649.91;;;3.46;71.68
33161;BME280;19522;45.656;11.302;2023-02-15T03:12:14;99647.34;;;3.44;71.38
33161;BME280;19522;45.656;11.302;2023-02-15T03:14:44;99646.53;;;3.31;71.56
33161;BME280;19522;45.656;11.302;2023-02-15T03:17:12;99634.41;;;3.25;71.71
33161;BME280;19522;45.656;11.302;2023-02-15T03:19:38;99641.09;;;3.43;70.77
33161;BME280;19522;45.656;11.302;2023-02-15T03:22:31;99641.56;;;3.37;71.13
33161;BME280;19522;45.656;11.302;2023-02-15T03:25:04;99640.88;;;3.47;70.60
33161;BME280;19522;45.656;11.302;2023-02-15T03:27:37;99631.47;;;3.41;70.43
33161;BME280;19522;45.656;11.302;2023-02-15T03:30:05;99633.53;;;3.37;71.09
33161;BME280;19522;45.656;11.302;2023-02-15T03:32:33;99639.69;;;3.26;71.61
33161;BME280;19522;45.656;11.302;2023-02-15T03:35:00;99644.19;;;3.26;72.14
33161;BME280;19522;45.656;11.302;2023-02-15T03:37:57;99634.19;;;3.28;71.79
33161;BME280;19522;45.656;11.302;2023-02-15T03:40:34;99638.31;;;3.21;71.76
33161;BME280;19522;45.656;11.302;2023-02-15T03:43:34;99638.81;;;3.26;71.44
33161;BME280;19522;45.656;11.302;2023-02-15T03:46:11;99630.63;;;3.27;71.18
33161;BME280;19522;45.656;11.302;2023-02-15T03:48:45;99627.41;;;3.35;70.48
33161;BME280;19522;45.656;11.302;2023-02-15T03:51:22;99629.97;;;3.37;70.51
33161;BME280;19522;45.656;11.302;2023-02-15T03:54:26;99624.88;;;3.21;70.85
33161;BME280;19522;45.656;11.302;2023-02-15T03:57:10;99629.72;;;3.16;71.23
33161;BME280;19522;45.656;11.302;2023-02-15T03:59:57;99631.72;;;3.25;71.10
33161;BME280;19522;45.656;11.302;2023-02-15T04:05:25;99625.47;;;3.37;70.44
33161;BME280;19522;45.656;11.302;2023-02-15T04:07:50;99631.28;;;3.31;71.03
33161;BME280;19522;45.656;11.302;2023-02-15T04:10:16;99552.66;;;2.80;71.05
33161;BME280;19522;45.656;11.302;2023-02-15T04:13:00;99626.00;;;3.30;70.56
33161;BME280;19522;45.656;11.302;2023-02-15T04:15:25;99640.13;;;3.20;70.91
33161;BME280;19522;45.656;11.302;2023-02-15T04:18:20;99633.28;;;3.16;70.85
33161;BME280;19522;45.656;11.302;2023-02-15T04:20:46;99635.31;;;3.37;70.45
33161;BME280;19522;45.656;11.302;2023-02-15T04:23:31;99630.97;;;3.60;69.41
33161;BME280;19522;45.656;11.302;2023-02-15T04:26:16;99629.06;;;3.49;69.26
33161;BME280;19522;45.656;11.302;2023-02-15T04:28:41;99630.84;;;3.37;69.69
33161;BME280;19522;45.656;11.302;2023-02-15T04:31:07;99607.91;;;3.20;70.09
33161;BME280;19522;45.656;11.302;2023-02-15T04:33:32;99601.16;;;3.15;69.82
33161;BME280;19522;45.656;11.302;2023-02-15T04:35:58;99621.88;;;3.25;69.30
33161;BME280;19522;45.656;11.302;2023-02-15T04:38:23;99633.91;;;3.20;70.00
33161;BME280;19522;45.656;11.302;2023-02-15T04:40:50;99624.13;;;3.19;70.33
33161;BME280;19522;45.656;11.302;2023-02-15T04:43:17;99635.72;;;3.43;69.45
33161;BME280;19522;45.656;11.302;2023-02-15T04:45:48;99624.38;;;3.40;69.08
33161;BME280;19522;45.656;11.302;2023-02-15T04:48:14;99627.84;;;3.29;69.52
33161;BME280;19522;45.656;11.302;2023-02-15T04:50:39;99619.69;;;3.31;69.37
33161;BME280;19522;45.656;11.302;2023-02-15T04:53:05;99627.41;;;3.35;69.09
33161;BME280;19522;45.656;11.302;2023-02-15T04:55:30;99626.34;;;3.25;69.44
33161;BME280;19522;45.656;11.302;2023-02-15T04:57:56;99627.28;;;3.13;70.05
33161;BME280;19522;45.656;11.302;2023-02-15T05:00:21;99615.91;;;2.96;70.29
33161;BME280;19522;45.656;11.302;2023-02-15T05:02:47;99608.00;;;2.94;70.20
33161;BME280;19522;45.656;11.302;2023-02-15T05:05:12;99630.22;;;2.96;70.50
33161;BME280;19522;45.656;11.302;2023-02-15T05:07:40;99630.94;;;3.11;70.46
33161;BME280;19522;45.656;11.302;2023-02-15T05:10:06;99618.97;;;3.16;70.21
33161;BME280;19522;45.656;11.302;2023-02-15T05:12:32;99620.19;;;3.11;70.11
33161;BME280;19522;45.656;11.302;2023-02-15T05:14:57;99625.84;;;3.20;69.83
33161;BME280;19522;45.656;11.302;2023-02-15T05:17:23;99613.53;;;3.04;70.15
33161;BME280;19522;45.656;11.302;2023-02-15T05:19:48;99629.34;;;2.96;70.97
33161;BME280;19522;45.656;11.302;2023-02-15T05:22:14;99626.63;;;3.09;70.74
33161;BME280;19522;45.656;11.302;2023-02-15T05:24:39;99627.69;;;3.06;69.77
33161;BME280;19522;45.656;11.302;2023-02-15T05:27:23;99615.06;;;2.95;70.14
33161;BME280;19522;45.656;11.302;2023-02-15T05:30:09;99616.56;;;3.00;69.60
33161;BME280;19522;45.656;11.302;2023-02-15T05:32:37;99633.16;;;3.18;69.33
33161;BME280;19522;45.656;11.302;2023-02-15T05:35:05;99631.56;;;3.15;69.26
33161;BME280;19522;45.656;11.302;2023-02-15T05:37:30;99617.31;;;3.02;69.53
33161;BME280;19522;45.656;11.302;2023-02-15T05:39:56;99633.81;;;3.08;70.06
33161;BME280;19522;45.656;11.302;2023-02-15T05:42:21;99635.00;;;3.04;70.50
33161;BME280;19522;45.656;11.302;2023-02-15T05:44:46;99642.88;;;2.94;70.93
33161;BME280;19522;45.656;11.302;2023-02-15T05:47:12;99633.56;;;2.87;70.96
33161;BME280;19522;45.656;11.302;2023-02-15T05:49:37;99634.28;;;2.89;70.62
33161;BME280;19522;45.656;11.302;2023-02-15T05:52:03;99612.84;;;2.76;70.61
33161;BME280;19522;45.656;11.302;2023-02-15T05:54:29;99618.03;;;2.67;71.26
33161;BME280;19522;45.656;11.302;2023-02-15T05:56:54;99631.50;;;2.91;70.63
33161;BME280;19522;45.656;11.302;2023-02-15T05:59:19;99611.03;;;2.77;70.42
33161;BME280;19522;45.656;11.302;2023-02-15T06:01:45;99611.66;;;2.80;70.31
33161;BME280;19522;45.656;11.302;2023-02-15T06:04:10;99635.66;;;2.95;70.40
33161;BME280;19522;45.656;11.302;2023-02-15T06:06:36;99629.78;;;2.90;70.58
33161;BME280;19522;45.656;11.302;2023-02-15T06:09:02;99634.19;;;2.91;70.71
33161;BME280;19522;45.656;11.302;2023-02-15T06:11:27;99637.63;;;2.93;71.15
33161;BME280;19522;45.656;11.302;2023-02-15T06:13:52;99604.78;;;2.76;71.25
33161;BME280;19522;45.656;11.302;2023-02-15T06:16:18;99640.19;;;2.94;70.90
33161;BME280;19522;45.656;11.302;2023-02-15T06:18:43;99647.81;;;2.88;70.63
33161;BME280;19522;45.656;11.302;2023-02-15T06:21:09;99645.78;;;2.78;70.54
33161;BME280;19522;45.656;11.302;2023-02-15T06:23:34;99645.88;;;2.90;70.15
33161;BME280;19522;45.656;11.302;2023-02-15T06:26:00;99653.06;;;3.02;69.68
33161;BME280;19522;45.656;11.302;2023-02-15T06:28:25;99642.34;;;3.02;69.55
33161;BME280;19522;45.656;11.302;2023-02-15T06:30:51;99650.06;;;3.07;69.45
33161;BME280;19522;45.656;11.302;2023-02-15T06:33:17;99656.72;;;3.01;69.85
33161;BME280;19522;45.656;11.302;2023-02-15T06:35:42;99634.41;;;2.88;69.70
33161;BME280;19522;45.656;11.302;2023-02-15T06:38:08;99662.19;;;3.13;69.53
33161;BME280;19522;45.656;11.302;2023-02-15T06:40:34;99665.38;;;3.18;69.67
33161;BME280;19522;45.656;11.302;2023-02-15T06:42:59;99662.56;;;3.19;69.81
33161;BME280;19522;45.656;11.302;2023-02-15T06:45:25;99667.38;;;3.27;70.14
33161;BME280;19522;45.656;11.302;2023-02-15T06:47:50;99673.41;;;3.18;70.35
33161;BME280;19522;45.656;11.302;2023-02-15T06:50:16;99669.47;;;3.10;70.47
33161;BME280;19522;45.656;11.302;2023-02-15T06:52:41;99670.31;;;3.11;70.11
33161;BME280;19522;45.656;11.302;2023-02-15T06:55:07;99663.84;;;3.26;69.94
33161;BME280;19522;45.656;11.302;2023-02-15T06:57:32;99664.31;;;3.45;69.32
33161;BME280;19522;45.656;11.302;2023-02-15T06:59:58;99663.69;;;3.41;69.04
33161;BME280;19522;45.656;11.302;2023-02-15T07:02:24;99665.00;;;3.35;68.74
33161;BME280;19522;45.656;11.302;2023-02-15T07:04:50;99665.44;;;3.29;68.57
33161;BME280;19522;45.656;11.302;2023-02-15T07:07:15;99659.44;;;3.25;68.48
33161;BME280;19522;45.656;11.302;2023-02-15T07:09:41;99654.84;;;3.15;69.18
33161;BME280;19522;45.656;11.302;2023-02-15T07:12:06;99664.56;;;3.28;68.65
33161;BME280;19522;45.656;11.302;2023-02-15T07:14:51;99653.50;;;3.33;68.07
33161;BME280;19522;45.656;11.302;2023-02-15T07:17:17;99612.84;;;3.26;67.60
33161;BME280;19522;45.656;11.302;2023-02-15T07:19:43;99655.41;;;3.44;67.88
33161;BME280;19522;45.656;11.302;2023-02-15T07:22:08;99651.34;;;3.38;68.62
33161;BME280;19522;45.656;11.302;2023-02-15T07:24:37;99637.50;;;3.32;68.20
33161;BME280;19522;45.656;11.302;2023-02-15T07:27:02;99639.84;;;3.36;68.59
33161;BME280;19522;45.656;11.302;2023-02-15T07:29:28;99650.81;;;3.33;69.48
33161;BME280;19522;45.656;11.302;2023-02-15T07:31:53;99658.03;;;3.57;70.04
33161;BME280;19522;45.656;11.302;2023-02-15T07:34:19;99649.34;;;3.78;68.72
33161;BME280;19522;45.656;11.302;2023-02-15T07:36:45;99618.03;;;3.65;68.87
33161;BME280;19522;45.656;11.302;2023-02-15T07:39:10;99627.59;;;3.69;68.83
33161;BME280;19522;45.656;11.302;2023-02-15T07:41:36;99645.63;;;3.92;68.70
33161;BME280;19522;45.656;11.302;2023-02-15T07:44:01;99639.94;;;4.08;68.89
33161;BME280;19522;45.656;11.302;2023-02-15T07:46:27;99622.47;;;4.13;68.44
33161;BME280;19522;45.656;11.302;2023-02-15T07:48:53;99630.47;;;4.38;67.44
33161;BME280;19522;45.656;11.302;2023-02-15T07:51:18;99637.31;;;4.42;67.40
33161;BME280;19522;45.656;11.302;2023-02-15T07:53:44;99637.09;;;4.45;67.65
33161;BME280;19522;45.656;11.302;2023-02-15T07:56:11;99633.03;;;4.39;67.72
33161;BME280;19522;45.656;11.302;2023-02-15T07:58:37;99605.78;;;4.55;66.66
33161;BME280;19522;45.656;11.302;2023-02-15T08:03:44;99636.00;;;5.04;66.66
33161;BME280;19522;45.656;11.302;2023-02-15T08:06:10;99625.59;;;5.11;65.36
33161;BME280;19522;45.656;11.302;2023-02-15T08:08:38;99628.00;;;5.25;64.37
33161;BME280;19522;45.656;11.302;2023-02-15T08:13:57;99617.50;;;5.22;65.43
33161;BME280;19522;45.656;11.302;2023-02-15T08:16:29;99627.09;;;5.48;65.48
33161;BME280;19522;45.656;11.302;2023-02-15T08:18:55;99619.34;;;5.54;65.19
33161;BME280;19522;45.656;11.302;2023-02-15T08:21:22;99628.13;;;5.68;64.96
33161;BME280;19522;45.656;11.302;2023-02-15T08:23:47;99626.84;;;5.83;64.69
33161;BME280;19522;45.656;11.302;2023-02-15T08:26:13;99602.16;;;5.99;63.22
33161;BME280;19522;45.656;11.302;2023-02-15T08:28:40;99610.41;;;6.19;62.81
33161;BME280;19522;45.656;11.302;2023-02-15T08:31:06;99618.94;;;6.45;61.91
33161;BME280;19522;45.656;11.302;2023-02-15T08:33:33;99613.00;;;6.51;61.72
33161;BME280;19522;45.656;11.302;2023-02-15T08:36:07;99602.78;;;6.55;61.17
33161;BME280;19522;45.656;11.302;2023-02-15T08:38:33;99623.38;;;6.77;60.86
33161;BME280;19522;45.656;11.302;2023-02-15T08:41:18;99612.25;;;7.01;59.96
33161;BME280;19522;45.656;11.302;2023-02-15T08:43:49;99607.88;;;7.20;58.05
33161;BME280;19522;45.656;11.302;2023-02-15T08:46:16;99612.19;;;7.42;57.39
33161;BME280;19522;45.656;11.302;2023-02-15T08:48:42;99610.06;;;7.56;56.90
33161;BME280;19522;45.656;11.302;2023-02-15T08:51:13;99611.34;;;7.81;56.28
33161;BME280;19522;45.656;11.302;2023-02-15T08:53:41;99607.94;;;8.08;54.79
33161;BME280;19522;45.656;11.302;2023-02-15T08:56:08;99601.78;;;8.36;53.75
33161;BME280;19522;45.656;11.302;2023-02-15T08:58:34;99595.41;;;8.75;52.03
33161;BME280;19522;45.656;11.302;2023-02-15T09:01:00;99584.41;;;9.14;51.09
33161;BME280;19522;45.656;11.302;2023-02-15T09:03:28;99584.91;;;9.81;49.16
33161;BME280;19522;45.656;11.302;2023-02-15T09:05:58;99592.56;;;10.49;47.26
33161;BME280;19522;45.656;11.302;2023-02-15T09:08:24;99590.44;;;11.30;45.75
33161;BME280;19522;45.656;11.302;2023-02-15T09:10:50;99570.16;;;12.00;42.86
33161;BME280;19522;45.656;11.302;2023-02-15T09:13:15;99548.28;;;12.58;41.09
33161;BME280;19522;45.656;11.302;2023-02-15T09:15:41;99584.06;;;13.43;42.06
33161;BME280;19522;45.656;11.302;2023-02-15T09:18:06;99588.66;;;13.74;40.85
33161;BME280;19522;45.656;11.302;2023-02-15T09:20:35;99566.94;;;14.03;40.48
33161;BME280;19522;45.656;11.302;2023-02-15T09:23:01;99577.41;;;14.38;38.92
33161;BME280;19522;45.656;11.302;2023-02-15T09:25:27;99580.22;;;14.83;38.38
33161;BME280;19522;45.656;11.302;2023-02-15T09:27:53;99576.88;;;15.18;37.67
33161;BME280;19522;45.656;11.302;2023-02-15T09:30:19;99588.53;;;15.41;37.06
33161;BME280;19522;45.656;11.302;2023-02-15T09:32:44;99562.72;;;15.29;37.08
33161;BME280;19522;45.656;11.302;2023-02-15T09:35:11;99583.44;;;15.75;35.78
33161;BME280;19522;45.656;11.302;2023-02-15T09:37:37;99573.47;;;15.67;35.16
33161;BME280;19522;45.656;11.302;2023-02-15T09:40:04;99581.56;;;15.97;34.60
33161;BME280;19522;45.656;11.302;2023-02-15T09:43:42;99589.19;;;15.80;34.61
33161;BME280;19522;45.656;11.302;2023-02-15T09:45:55;99534.91;;;15.47;35.24
33161;BME280;19522;45.656;11.302;2023-02-15T09:48:41;99584.13;;;15.99;34.16
33161;BME280;19522;45.656;11.302;2023-02-15T09:56:45;99583.03;;;16.43;34.22
33161;BME280;19522;45.656;11.302;2023-02-15T09:59:23;99577.72;;;16.70;34.30
33161;BME280;19522;45.656;11.302;2023-02-15T10:10:18;99579.47;;;17.68;32.49
33161;BME280;19522;45.656;11.302;2023-02-15T10:15:57;99574.50;;;17.30;32.74
33161;BME280;19522;45.656;11.302;2023-02-15T10:18:52;99573.59;;;17.78;32.91
33161;BME280;19522;45.656;11.302;2023-02-15T10:26:48;99563.03;;;17.95;31.77
33161;BME280;19522;45.656;11.302;2023-02-15T10:29:36;99564.56;;;18.04;31.60
33161;BME280;19522;45.656;11.302;2023-02-15T10:34:54;99556.75;;;18.28;31.36
33161;BME280;19522;45.656;11.302;2023-02-15T10:50:55;99504.28;;;16.59;33.51
33161;BME280;19522;45.656;11.302;2023-02-15T10:59:26;99536.44;;;17.13;32.83
33161;BME280;19522;45.656;11.302;2023-02-15T11:02:11;99530.50;;;17.10;34.88
33161;BME280;19522;45.656;11.302;2023-02-15T11:04:55;99530.38;;;17.38;34.09
33161;BME280;19522;45.656;11.302;2023-02-15T11:07:36;99530.34;;;17.25;34.09
33161;BME280;19522;45.656;11.302;2023-02-15T11:10:22;99528.44;;;16.83;33.71
33161;BME280;19522;45.656;11.302;2023-02-15T11:12:51;99514.19;;;16.31;35.34
33161;BME280;19522;45.656;11.302;2023-02-15T11:15:37;99518.75;;;16.52;35.54
33161;BME280;19522;45.656;11.302;2023-02-15T11:23:22;99512.63;;;16.86;34.57
33161;BME280;19522;45.656;11.302;2023-02-15T11:26:10;99498.91;;;16.86;34.33
33161;BME280;19522;45.656;11.302;2023-02-15T11:28:43;99505.66;;;16.48;34.41
33161;BME280;19522;45.656;11.302;2023-02-15T11:31:17;99506.03;;;16.73;35.76
33161;BME280;19522;45.656;11.302;2023-02-15T11:33:47;99489.31;;;16.33;35.30
33161;BME280;19522;45.656;11.302;2023-02-15T11:38:44;99496.00;;;16.24;35.21
33161;BME280;19522;45.656;11.302;2023-02-15T11:41:16;99500.09;;;16.70;35.33
33161;BME280;19522;45.656;11.302;2023-02-15T11:46:31;99498.31;;;15.92;36.23
33161;BME280;19522;45.656;11.302;2023-02-15T11:48:56;99478.31;;;16.26;36.67
33161;BME280;19522;45.656;11.302;2023-02-15T11:51:24;99489.03;;;16.49;36.50
33161;BME280;19522;45.656;11.302;2023-02-15T11:53:52;99473.81;;;16.12;36.17
33161;BME280;19522;45.656;11.302;2023-02-15T11:56:27;99482.72;;;16.56;36.19
33161;BME280;19522;45.656;11.302;2023-02-15T11:58:59;99489.03;;;16.56;35.96
33161;BME280;19522;45.656;11.302;2023-02-15T12:01:36;99481.34;;;16.73;36.32
33161;BME280;19522;45.656;11.302;2023-02-15T12:04:23;99475.91;;;17.49;35.30
33161;BME280;19522;45.656;11.302;2023-02-15T12:07:22;99480.06;;;17.18;35.75
33161;BME280;19522;45.656;11.302;2023-02-15T12:09:59;99475.28;;;17.47;35.40
33161;BME280;19522;45.656;11.302;2023-02-15T12:12:34;99473.34;;;17.34;34.95
33161;BME280;19522;45.656;11.302;2023-02-15T12:15:09;99467.41;;;17.17;34.84
33161;BME280;19522;45.656;11.302;2023-02-15T12:17:48;99469.16;;;17.38;34.64
33161;BME280;19522;45.656;11.302;2023-02-15T12:23:02;99453.75;;;17.90;33.68
33161;BME280;19522;45.656;11.302;2023-02-15T12:25:40;99453.34;;;18.20;32.93
33161;BME280;19522;45.656;11.302;2023-02-15T12:31:02;99443.13;;;19.13;31.23
33161;BME280;19522;45.656;11.302;2023-02-15T12:33:40;99444.66;;;18.30;31.99
33161;BME280;19522;45.656;11.302;2023-02-15T12:36:12;99456.38;;;18.71;31.63
33161;BME280;19522;45.656;11.302;2023-02-15T12:38:41;99448.00;;;19.43;30.36
33161;BME280;19522;45.656;11.302;2023-02-15T12:41:28;99449.84;;;19.56;29.02
33161;BME280;19522;45.656;11.302;2023-02-15T12:44:17;99443.41;;;18.92;29.20
33161;BME280;19522;45.656;11.302;2023-02-15T12:47:04;99442.63;;;19.23;28.68
33161;BME280;19522;45.656;11.302;2023-02-15T12:49:36;99428.44;;;18.74;28.53
33161;BME280;19522;45.656;11.302;2023-02-15T12:54:50;99429.75;;;19.74;27.91
33161;BME280;19522;45.656;11.302;2023-02-15T13:00:12;99403.53;;;19.97;28.26
33161;BME280;19522;45.656;11.302;2023-02-15T13:02:55;99420.09;;;20.34;27.57
33161;BME280;19522;45.656;11.302;2023-02-15T13:05:34;99402.53;;;20.10;27.89
33161;BME280;19522;45.656;11.302;2023-02-15T13:11:09;99394.34;;;20.22;27.31
33161;BME280;19522;45.656;11.302;2023-02-15T13:14:03;99400.28;;;20.63;28.32
33161;BME280;19522;45.656;11.302;2023-02-15T13:16:47;99389.13;;;19.95;27.56
33161;BME280;19522;45.656;11.302;2023-02-15T13:19:19;99402.69;;;19.39;27.98
33161;BME280;19522;45.656;11.302;2023-02-15T13:21:49;99405.44;;;19.07;29.21
33161;BME280;19522;45.656;11.302;2023-02-15T13:24:25;99394.91;;;19.61;29.03
33161;BME280;19522;45.656;11.302;2023-02-15T13:26:56;99379.22;;;18.52;28.93
33161;BME280;19522;45.656;11.302;2023-02-15T13:29:27;99400.53;;;18.71;29.48
33161;BME280;19522;45.656;11.302;2023-02-15T13:31:54;99398.13;;;19.26;29.02
33161;BME280;19522;45.656;11.302;2023-02-15T13:34:35;99392.28;;;19.16;29.01
33161;BME280;19522;45.656;11.302;2023-02-15T13:37:19;99385.31;;;19.39;29.18
33161;BME280;19522;45.656;11.302;2023-02-15T13:40:06;99385.50;;;19.12;29.08
33161;BME280;19522;45.656;11.302;2023-02-15T13:42:39;99392.66;;;19.20;29.23
33161;BME280;19522;45.656;11.302;2023-02-15T13:48:24;99393.22;;;18.96;29.39
33161;BME280;19522;45.656;11.302;2023-02-15T14:01:46;99397.78;;;17.98;30.29
33161;BME280;19522;45.656;11.302;2023-02-15T14:04:39;99401.78;;;17.49;31.14
33161;BME280;19522;45.656;11.302;2023-02-15T14:07:25;99401.56;;;17.84;31.48
33161;BME280;19522;45.656;11.302;2023-02-15T14:16:04;99394.81;;;17.93;30.06
33161;BME280;19522;45.656;11.302;2023-02-15T14:18:45;99401.13;;;17.87;31.08
33161;BME280;19522;45.656;11.302;2023-02-15T14:21:34;99402.38;;;17.17;31.60
33161;BME280;19522;45.656;11.302;2023-02-15T14:24:52;99413.19;;;17.59;30.99
33161;BME280;19522;45.656;11.302;2023-02-15T14:29:51;99412.66;;;16.95;31.54
33161;BME280;19522;45.656;11.302;2023-02-15T14:32:41;99409.72;;;16.96;31.86
33161;BME280;19522;45.656;11.302;2023-02-15T14:35:27;99370.41;;;16.34;32.49
33161;BME280;19522;45.656;11.302;2023-02-15T14:46:34;99412.22;;;16.43;32.36
33161;BME280;19522;45.656;11.302;2023-02-15T14:49:10;99412.97;;;16.65;33.12
33161;BME280;19522;45.656;11.302;2023-02-15T14:56:46;99418.94;;;16.33;34.04
33161;BME280;19522;45.656;11.302;2023-02-15T15:05:02;99412.31;;;16.21;34.74
33161;BME280;19522;45.656;11.302;2023-02-15T15:07:42;99397.06;;;15.83;35.28
33161;BME280;19522;45.656;11.302;2023-02-15T15:12:43;99410.09;;;16.03;35.44
33161;BME280;19522;45.656;11.302;2023-02-15T15:15:33;99410.41;;;15.65;36.02
33161;BME280;19522;45.656;11.302;2023-02-15T15:18:09;99399.94;;;15.75;36.12
33161;BME280;19522;45.656;11.302;2023-02-15T15:20:49;99403.56;;;16.04;36.04
33161;BME280;19522;45.656;11.302;2023-02-15T15:25:41;99411.13;;;15.73;36.20
33161;BME280;19522;45.656;11.302;2023-02-15T15:28:07;99394.72;;;15.52;36.73
33161;BME280;19522;45.656;11.302;2023-02-15T15:33:25;99404.56;;;15.24;37.36
33161;BME280;19522;45.656;11.302;2023-02-15T15:41:42;99419.28;;;15.02;38.21
33161;BME280;19522;45.656;11.302;2023-02-15T15:49:42;99424.09;;;15.00;38.80
33161;BME280;19522;45.656;11.302;2023-02-15T15:52:16;99421.56;;;15.20;38.63
33161;BME280;19522;45.656;11.302;2023-02-15T15:54:43;99361.69;;;14.88;38.42
33161;BME280;19522;45.656;11.302;2023-02-15T15:57:30;99423.66;;;14.96;38.84
33161;BME280;19522;45.656;11.302;2023-02-15T15:59:57;99403.38;;;14.90;38.76
33161;BME280;19522;45.656;11.302;2023-02-15T16:02:26;99414.16;;;14.77;39.47
33161;BME280;19522;45.656;11.302;2023-02-15T16:04:52;99412.78;;;15.03;39.46